createdAt,value
2023-04-03T17:55:47.575Z,97407.06
2023-04-03T17:58:14.894Z,97410.81
2023-04-03T18:00:42.117Z,97412.88
2023-04-03T18:03:09.428Z,97409.72
2023-04-03T18:05:37.126Z,97408.22
2023-04-03T18:08:04.626Z,97414.38
2023-04-03T18:10:31.837Z,97422.22
2023-04-03T18:13:00.400Z,97414.69
2023-04-03T18:15:27.679Z,97415.25
2023-04-03T18:17:54.940Z,97410.63
2023-04-03T18:20:22.421Z,97420.13
2023-04-03T18:22:49.737Z,97416.88
2023-04-03T18:25:17.164Z,97420.63
2023-04-03T18:27:44.586Z,97419.69
2023-04-03T18:30:14.656Z,97420.28
2023-04-03T18:32:41.867Z,97426.38
2023-04-03T18:35:09.802Z,97419.28
2023-04-03T18:37:37.089Z,97412.72
2023-04-03T18:40:04.843Z,97415.06
2023-04-03T18:42:32.221Z,97429.63
2023-04-03T18:45:00.418Z,97418.75
2023-04-03T18:47:29.216Z,97431.47
2023-04-03T18:49:57.221Z,97431.25
2023-04-03T18:52:24.527Z,97433.28
2023-04-03T18:54:51.781Z,97438.72
2023-04-03T18:57:19.072Z,97435.72
2023-04-03T18:59:46.330Z,97436.72
2023-04-03T19:02:13.922Z,97434.44
2023-04-03T19:04:42.938Z,97439.13
2023-04-03T19:07:10.210Z,97437.72
2023-04-03T19:09:37.471Z,97437.53
2023-04-03T19:12:04.865Z,97443.34
2023-04-03T19:14:32.194Z,97437.94
2023-04-03T19:16:59.458Z,97442.75
2023-04-03T19:19:26.656Z,97445.19
2023-04-03T19:21:55.233Z,97443.38
2023-04-03T19:24:22.508Z,97439.94
2023-04-03T19:26:49.767Z,97439.72
2023-04-03T19:29:16.965Z,97434.47
2023-04-03T19:31:44.217Z,97440.53
